createdAt,value
2018-07-07T00:00:17.504Z,18.10
2018-07-07T00:02:45.919Z,18.10
2018-07-07T00:05:14.422Z,18.00
2018-07-07T00:10:12.358Z,18.00
2018-07-07T00:15:13.158Z,17.90
2018-07-07T00:17:42.047Z,17.90
2018-07-07T00:20:10.510Z,17.90
2018-07-07T00:22:38.989Z,17.80
2018-07-07T00:25:11.823Z,17.80
2018-07-07T00:27:40.261Z,17.90
2018-07-07T00:30:08.863Z,17.70
2018-07-07T00:32:37.321Z,17.80
2018-07-07T00:35:05.857Z,17.60
2018-07-07T00:37:34.328Z,17.50
2018-07-07T00:40:03.045Z,17.70
2018-07-07T00:44:59.627Z,17.60
2018-07-07T00:47:28.078Z,17.60
2018-07-07T00:52:24.926Z,17.60
2018-07-07T00:54:53.407Z,17.70
2018-07-07T00:57:21.814Z,17.70
2018-07-07T00:59:50.493Z,17.70
2018-07-07T01:02:19.450Z,17.60
2018-07-07T01:04:49.486Z,17.60
2018-07-07T01:07:17.931Z,17.60
2018-07-07T01:09:46.561Z,17.50
2018-07-07T01:12:15.010Z,17.40
2018-07-07T01:14:43.483Z,17.50
2018-07-07T01:17:11.924Z,17.50
2018-07-07T01:19:40.587Z,17.50
2018-07-07T01:27:06.415Z,17.00
2018-07-07T01:29:34.857Z,16.90
2018-07-07T01:32:03.260Z,16.70
2018-07-07T01:34:31.714Z,16.70
2018-07-07T01:37:00.107Z,16.60
2018-07-07T01:39:28.523Z,16.50
2018-07-07T01:41:56.959Z,16.50
2018-07-07T01:44:25.391Z,16.40
2018-07-07T01:46:53.819Z,16.30
2018-07-07T01:49:22.227Z,16.30
2018-07-07T01:51:50.669Z,16.40
2018-07-07T01:54:19.111Z,16.40
2018-07-07T01:56:47.527Z,16.50
2018-07-07T01:59:15.959Z,16.60
2018-07-07T02:01:44.383Z,16.70
2018-07-07T02:04:12.801Z,16.70
2018-07-07T02:06:41.242Z,16.80
2018-07-07T02:11:37.774Z,16.80
2018-07-07T02:16:34.302Z,16.50
2018-07-07T02:19:02.703Z,16.50
2018-07-07T02:21:31.145Z,16.40
2018-07-07T02:23:59.555Z,16.20
2018-07-07T02:26:28.000Z,16.20
2018-07-07T02:28:56.417Z,16.10
2018-07-07T02:31:24.900Z,16.00
2018-07-07T02:33:53.308Z,16.00
2018-07-07T02:36:21.782Z,16.00
2018-07-07T02:38:50.203Z,15.90
2018-07-07T02:41:18.688Z,15.90
2018-07-07T02:43:47.111Z,15.90
2018-07-07T02:46:15.599Z,15.80
2018-07-07T02:48:43.976Z,15.70
2018-07-07T02:53:40.545Z,15.70
2018-07-07T02:56:09.011Z,15.70
2018-07-07T03:01:05.649Z,15.60
2018-07-07T03:03:34.331Z,15.70
2018-07-07T03:06:02.774Z,15.80
2018-07-07T03:08:31.236Z,15.70
2018-07-07T03:10:59.683Z,15.70
2018-07-07T03:13:28.143Z,15.70
2018-07-07T03:15:56.591Z,15.70
2018-07-07T03:18:25.113Z,15.70
2018-07-07T03:20:53.567Z,15.70
2018-07-07T03:23:22.007Z,15.70
2018-07-07T03:25:50.442Z,15.80
2018-07-07T03:28:18.886Z,15.90
2018-07-07T03:30:47.319Z,15.80
2018-07-07T03:33:15.774Z,15.90
2018-07-07T03:35:44.203Z,15.80
2018-07-07T03:38:12.669Z,15.80
2018-07-07T03:40:41.091Z,15.80
2018-07-07T03:43:09.534Z,15.70
2018-07-07T03:45:38.961Z,15.80
2018-07-07T03:50:35.561Z,16.00
2018-07-07T03:58:00.279Z,16.30
2018-07-07T04:00:28.725Z,16.50
2018-07-07T04:02:57.184Z,16.70
2018-07-07T04:05:25.629Z,16.80
2018-07-07T04:07:54.171Z,16.90
2018-07-07T04:12:50.871Z,17.20
2018-07-07T04:15:19.296Z,17.00
2018-07-07T04:17:47.751Z,16.90
2018-07-07T04:20:16.187Z,16.90
2018-07-07T04:22:44.646Z,16.90
2018-07-07T04:27:41.196Z,16.90
2018-07-07T04:32:37.771Z,16.90
2018-07-07T04:35:06.299Z,16.90
2018-07-07T04:37:34.738Z,17.00
2018-07-07T04:40:03.227Z,16.90
2018-07-07T04:42:31.694Z,16.80
2018-07-07T04:45:00.160Z,16.80
2018-07-07T04:49:56.754Z,16.90
2018-07-07T04:52:25.247Z,16.90
2018-07-07T04:54:53.676Z,16.90
2018-07-07T04:59:50.239Z,17.10
2018-07-07T05:02:18.690Z,17.30
2018-07-07T05:04:47.243Z,17.40
2018-07-07T05:07:15.663Z,17.70
2018-07-07T05:09:44.117Z,18.20
2018-07-07T05:12:12.547Z,18.30
2018-07-07T05:14:40.996Z,18.50
2018-07-07T05:17:09.425Z,19.00
2018-07-07T05:19:37.879Z,18.90
2018-07-07T05:24:34.443Z,19.30
2018-07-07T05:27:02.875Z,19.40
2018-07-07T05:29:31.323Z,19.40
2018-07-07T05:31:59.792Z,19.60
2018-07-07T05:34:28.242Z,19.80
2018-07-07T05:36:56.694Z,19.80
2018-07-07T05:39:25.163Z,19.40
2018-07-07T05:41:53.937Z,19.20
2018-07-07T05:44:22.367Z,19.20
2018-07-07T05:46:50.839Z,19.30
2018-07-07T05:49:19.271Z,19.60
2018-07-07T05:51:47.719Z,19.50
2018-07-07T05:56:44.288Z,19.40
2018-07-07T05:59:12.694Z,19.30
2018-07-07T06:01:41.147Z,19.10
2018-07-07T06:06:37.934Z,19.50
2018-07-07T06:09:06.579Z,19.50
2018-07-07T06:14:03.574Z,19.10
2018-07-07T06:16:32.069Z,18.90
2018-07-07T06:19:00.523Z,18.70
2018-07-07T06:21:29.034Z,18.90
2018-07-07T06:23:57.489Z,18.90
2018-07-07T06:26:25.931Z,19.00
2018-07-07T06:28:54.359Z,19.20
2018-07-07T06:31:22.822Z,19.00
2018-07-07T06:36:19.403Z,19.10
2018-07-07T06:38:47.843Z,19.50
2018-07-07T06:41:16.289Z,19.70
2018-07-07T06:43:44.737Z,19.80
2018-07-07T06:46:13.709Z,19.80
2018-07-07T06:48:42.123Z,20.20
2018-07-07T06:51:10.561Z,20.60
2018-07-07T06:56:07.291Z,20.60
2018-07-07T06:58:35.707Z,20.50
2018-07-07T07:01:04.194Z,20.50
2018-07-07T07:03:32.735Z,20.80
2018-07-07T07:06:01.130Z,21.10
2018-07-07T07:08:29.535Z,21.60
2018-07-07T07:10:58.031Z,21.60
2018-07-07T07:13:26.457Z,21.50
2018-07-07T07:15:54.870Z,21.60
2018-07-07T07:20:51.466Z,21.30
2018-07-07T07:23:19.905Z,21.80
2018-07-07T07:28:16.474Z,22.10
2018-07-07T07:30:44.887Z,22.20
2018-07-07T07:33:13.351Z,22.20
2018-07-07T07:35:41.775Z,22.00
2018-07-07T07:38:10.214Z,21.90
2018-07-07T07:40:38.663Z,22.10
2018-07-07T07:45:35.235Z,22.30
2018-07-07T07:48:03.715Z,22.20
2018-07-07T07:50:32.146Z,22.40
2018-07-07T07:53:00.592Z,22.60
2018-07-07T07:55:29.041Z,22.60
2018-07-07T08:00:25.974Z,22.70
2018-07-07T08:02:54.461Z,22.80
2018-07-07T08:05:22.919Z,22.60
2018-07-07T08:07:51.394Z,22.50
2018-07-07T08:10:19.864Z,22.70
2018-07-07T08:12:48.359Z,22.90
2018-07-07T08:15:16.797Z,22.90
2018-07-07T08:17:46.094Z,23.00
2018-07-07T08:20:14.524Z,23.00
2018-07-07T08:22:43.014Z,23.10
2018-07-07T08:25:11.435Z,23.00
2018-07-07T08:27:39.888Z,23.20
2018-07-07T08:30:08.318Z,23.60
2018-07-07T08:32:36.779Z,23.80
2018-07-07T08:35:05.219Z,23.90
2018-07-07T08:37:33.701Z,23.90
2018-07-07T08:40:02.154Z,23.50
2018-07-07T08:42:30.596Z,23.60
2018-07-07T08:47:27.251Z,23.60
2018-07-07T08:49:55.727Z,23.40
2018-07-07T08:54:52.359Z,23.50
2018-07-07T08:57:20.815Z,23.80
2018-07-07T08:59:49.290Z,24.00
2018-07-07T09:02:17.791Z,24.30
2018-07-07T09:04:46.379Z,24.20
2018-07-07T09:07:14.826Z,24.20
2018-07-07T09:09:43.262Z,24.20
2018-07-07T09:12:11.747Z,24.10
2018-07-07T09:14:40.281Z,24.30
2018-07-07T09:17:08.722Z,24.40
2018-07-07T09:22:05.418Z,24.40
2018-07-07T09:24:33.873Z,24.20
2018-07-07T09:27:02.334Z,24.30
2018-07-07T09:29:30.790Z,24.10
2018-07-07T09:31:59.226Z,24.20
2018-07-07T09:34:27.674Z,24.20
2018-07-07T09:36:56.263Z,24.30
2018-07-07T09:41:52.870Z,24.00
2018-07-07T09:44:21.322Z,24.20
2018-07-07T09:46:49.774Z,24.30
2018-07-07T09:49:18.250Z,24.30
2018-07-07T09:51:46.681Z,24.20
2018-07-07T09:54:15.123Z,24.20
2018-07-07T09:56:43.531Z,24.10
2018-07-07T09:59:11.969Z,24.00
2018-07-07T10:01:40.383Z,23.90
2018-07-07T10:04:08.818Z,24.50
2018-07-07T10:06:37.237Z,24.70
2018-07-07T10:09:05.691Z,24.90
2018-07-07T10:11:34.138Z,25.20
2018-07-07T10:14:02.614Z,25.10
2018-07-07T10:16:31.022Z,25.30
2018-07-07T10:18:59.491Z,25.30
2018-07-07T10:21:27.933Z,25.00
2018-07-07T10:23:56.354Z,24.80
2018-07-07T10:26:24.992Z,24.70
2018-07-07T10:28:53.402Z,24.50
2018-07-07T10:31:21.833Z,24.50
2018-07-07T10:33:50.234Z,24.40
2018-07-07T10:36:18.702Z,24.50
2018-07-07T10:41:15.267Z,24.70
2018-07-07T10:43:43.774Z,25.20
2018-07-07T10:46:12.340Z,25.30
2018-07-07T10:48:40.670Z,25.50
2018-07-07T10:51:09.107Z,25.90
2018-07-07T10:53:37.524Z,26.10
2018-07-07T10:56:06.032Z,25.40
2018-07-07T10:58:34.460Z,25.20
2018-07-07T11:01:03.005Z,25.20
2018-07-07T11:03:31.444Z,25.10
2018-07-07T11:05:59.904Z,25.40
2018-07-07T11:08:28.341Z,25.90
2018-07-07T11:13:24.892Z,26.10
2018-07-07T11:15:53.323Z,26.10
2018-07-07T11:18:21.744Z,26.20
2018-07-07T11:20:50.190Z,26.00
2018-07-07T11:23:18.630Z,25.70
2018-07-07T11:28:15.200Z,25.80
2018-07-07T11:30:43.623Z,25.40
2018-07-07T11:33:12.117Z,25.10
2018-07-07T11:35:40.558Z,25.10
2018-07-07T11:38:09.095Z,25.30
2018-07-07T11:40:37.631Z,25.40
2018-07-07T11:43:06.169Z,25.50
2018-07-07T11:45:34.737Z,25.70
2018-07-07T11:48:03.227Z,25.90
2018-07-07T11:50:31.777Z,26.30
2018-07-07T11:53:00.220Z,26.20
2018-07-07T11:55:28.661Z,26.30
2018-07-07T11:57:57.084Z,26.40
2018-07-07T12:00:25.532Z,26.20
2018-07-07T12:02:53.971Z,26.40
2018-07-07T12:05:22.415Z,26.10
2018-07-07T12:08:00.713Z,25.70
2018-07-07T12:10:19.281Z,25.50
2018-07-07T12:12:50.535Z,25.50
2018-07-07T12:15:18.979Z,25.10
2018-07-07T12:17:47.547Z,25.10
2018-07-07T12:20:15.974Z,25.10
2018-07-07T12:22:44.410Z,25.50
2018-07-07T12:25:12.863Z,25.80
2018-07-07T12:27:41.284Z,26.10
2018-07-07T12:30:09.763Z,26.10
2018-07-07T12:32:38.227Z,25.90
2018-07-07T12:35:06.680Z,25.60
2018-07-07T12:37:35.110Z,25.60
2018-07-07T12:40:03.591Z,26.10
2018-07-07T12:42:32.028Z,25.90
2018-07-07T12:45:00.471Z,25.80
2018-07-07T12:49:57.157Z,25.80
2018-07-07T12:52:25.598Z,25.60
2018-07-07T12:57:22.306Z,25.40
2018-07-07T12:59:50.732Z,25.80
2018-07-07T13:02:19.204Z,25.90
2018-07-07T13:04:47.685Z,26.00
2018-07-07T13:07:16.112Z,26.10
2018-07-07T13:09:44.593Z,26.20
2018-07-07T13:12:13.004Z,26.80
2018-07-07T13:14:41.441Z,27.10
2018-07-07T13:17:09.942Z,27.30
2018-07-07T13:19:38.427Z,27.00
2018-07-07T13:22:06.888Z,27.20
2018-07-07T13:24:35.381Z,27.50
2018-07-07T13:27:03.878Z,27.00
2018-07-07T13:29:32.371Z,26.90
2018-07-07T13:32:00.933Z,26.20
2018-07-07T13:34:29.434Z,26.20
2018-07-07T13:36:57.899Z,26.40
2018-07-07T13:39:26.346Z,26.50
2018-07-07T13:41:54.800Z,26.40
2018-07-07T13:44:23.259Z,26.40
2018-07-07T13:46:51.759Z,26.20
2018-07-07T13:49:20.200Z,26.00
2018-07-07T13:51:48.658Z,26.20
2018-07-07T13:54:17.123Z,26.30
2018-07-07T13:56:45.788Z,26.50
2018-07-07T13:59:14.223Z,26.90
2018-07-07T14:01:42.636Z,27.10
2018-07-07T14:04:11.059Z,27.10
2018-07-07T14:09:08.122Z,27.30
2018-07-07T14:11:36.535Z,27.30
2018-07-07T14:14:05.049Z,27.50
2018-07-07T14:16:33.469Z,27.30
2018-07-07T14:21:29.999Z,27.10
2018-07-07T14:23:58.452Z,27.30
2018-07-07T14:33:51.501Z,26.30
2018-07-07T14:38:48.058Z,26.70
2018-07-07T14:46:17.153Z,26.90
2018-07-07T14:51:13.663Z,26.80
2018-07-07T14:53:42.103Z,26.90
2018-07-07T14:56:10.626Z,26.90
2018-07-07T14:58:39.062Z,27.20
2018-07-07T15:01:07.712Z,27.10
2018-07-07T15:03:36.118Z,26.80
2018-07-07T15:06:04.619Z,26.50
2018-07-07T15:08:33.024Z,26.30
2018-07-07T15:11:01.566Z,26.30
2018-07-07T15:13:30.067Z,26.40
2018-07-07T15:18:26.598Z,26.40
2018-07-07T15:20:55.311Z,26.40
2018-07-07T15:23:24.038Z,26.50
2018-07-07T15:25:52.586Z,26.70
2018-07-07T15:30:49.388Z,27.00
2018-07-07T15:33:17.816Z,26.70
2018-07-07T15:35:46.279Z,26.60
2018-07-07T15:38:14.703Z,26.60
2018-07-07T15:40:43.177Z,26.50
2018-07-07T15:43:11.591Z,26.50
2018-07-07T15:45:40.065Z,26.50
2018-07-07T15:48:08.509Z,26.40
2018-07-07T15:55:33.365Z,26.90
2018-07-07T15:58:01.847Z,27.30
2018-07-07T16:00:30.319Z,27.20
2018-07-07T16:02:58.783Z,27.00
2018-07-07T16:05:27.252Z,27.30
2018-07-07T16:07:55.739Z,27.00
2018-07-07T16:10:24.167Z,26.70
2018-07-07T16:12:52.629Z,26.60
2018-07-07T16:15:21.082Z,26.50
2018-07-07T16:20:17.658Z,26.30
2018-07-07T16:22:46.111Z,26.40
2018-07-07T16:25:14.575Z,26.50
2018-07-07T16:27:43.040Z,26.50
2018-07-07T16:30:11.459Z,26.50
2018-07-07T16:32:39.983Z,26.30
2018-07-07T16:35:08.429Z,26.20
2018-07-07T16:37:36.931Z,26.20
2018-07-07T16:40:05.522Z,26.20
2018-07-07T16:42:39.111Z,26.10
2018-07-07T16:47:35.739Z,26.20
2018-07-07T16:50:04.211Z,26.40
2018-07-07T16:52:32.741Z,26.40
2018-07-07T16:55:01.250Z,26.40
2018-07-07T16:57:29.767Z,26.40
2018-07-07T17:00:03.335Z,26.40
2018-07-07T17:02:31.820Z,26.50
2018-07-07T17:05:03.567Z,26.40
2018-07-07T17:07:32.043Z,26.50
2018-07-07T17:10:00.563Z,26.40
2018-07-07T17:12:30.916Z,26.40
2018-07-07T17:15:02.399Z,26.40
2018-07-07T17:17:31.026Z,26.50
2018-07-07T17:19:59.548Z,26.60
2018-07-07T17:22:28.047Z,26.70
2018-07-07T17:24:57.110Z,26.70
2018-07-07T17:27:25.661Z,26.70
2018-07-07T17:29:54.198Z,26.70
2018-07-07T17:32:22.789Z,26.70
2018-07-07T17:34:51.293Z,26.60
2018-07-07T17:37:20.725Z,26.70
2018-07-07T17:39:49.370Z,26.80
2018-07-07T17:42:18.160Z,26.70
2018-07-07T17:44:46.802Z,26.60
2018-07-07T17:47:15.311Z,26.40
2018-07-07T17:49:43.822Z,26.20
2018-07-07T17:52:12.301Z,26.20
2018-07-07T17:54:40.815Z,26.20
2018-07-07T17:57:09.353Z,26.10
2018-07-07T17:59:38.347Z,25.90
2018-07-07T18:02:07.010Z,25.90
2018-07-07T18:04:36.981Z,25.90
2018-07-07T18:07:05.533Z,25.70
2018-07-07T18:09:33.997Z,25.60
2018-07-07T18:12:02.430Z,25.50
2018-07-07T18:14:30.896Z,25.70
2018-07-07T18:16:59.339Z,25.70
2018-07-07T18:19:27.803Z,25.80
2018-07-07T18:21:56.283Z,25.80
2018-07-07T18:26:52.967Z,25.60
2018-07-07T18:29:21.431Z,25.30
2018-07-07T18:31:49.880Z,25.30
2018-07-07T18:34:18.370Z,25.20
2018-07-07T18:36:46.815Z,25.00
2018-07-07T18:39:15.320Z,24.90
2018-07-07T18:41:43.773Z,24.90
2018-07-07T18:44:12.310Z,24.80
2018-07-07T18:46:40.699Z,24.70
2018-07-07T18:49:09.170Z,24.60
2018-07-07T18:51:37.626Z,24.50
2018-07-07T18:54:06.129Z,24.40
2018-07-07T18:56:34.669Z,24.30
2018-07-07T18:59:03.092Z,24.40
2018-07-07T19:03:59.692Z,24.20
2018-07-07T19:06:28.138Z,24.20
2018-07-07T19:08:56.568Z,24.20
2018-07-07T19:11:25.040Z,24.20
2018-07-07T19:13:53.519Z,24.10
2018-07-07T19:16:22.023Z,24.10
2018-07-07T19:18:50.462Z,24.10
2018-07-07T19:21:24.319Z,24.00
2018-07-07T19:23:58.066Z,24.00
2018-07-07T19:27:03.234Z,23.80
2018-07-07T19:29:32.327Z,23.80
2018-07-07T19:32:06.200Z,23.70
2018-07-07T19:34:40.065Z,23.70
2018-07-07T19:37:13.711Z,23.60
2018-07-07T19:39:42.392Z,23.60
2018-07-07T19:42:10.866Z,23.50
2018-07-07T19:44:39.389Z,23.50
2018-07-07T19:47:08.052Z,23.40
2018-07-07T19:49:37.627Z,23.40
2018-07-07T19:52:06.135Z,23.30
2018-07-07T19:54:34.666Z,23.30
2018-07-07T19:57:03.087Z,23.20
2018-07-07T19:59:31.669Z,23.20
2018-07-07T20:02:00.090Z,23.20
2018-07-07T20:04:28.521Z,23.20
2018-07-07T20:06:56.961Z,23.20
2018-07-07T20:09:25.392Z,23.20
2018-07-07T20:11:53.905Z,23.20
2018-07-07T20:14:24.925Z,23.10
2018-07-07T20:19:53.338Z,23.10
2018-07-07T20:22:21.907Z,23.10
2018-07-07T20:27:23.666Z,23.10
2018-07-07T20:29:52.075Z,23.00
2018-07-07T20:32:25.975Z,23.00
2018-07-07T20:37:22.526Z,23.00
2018-07-07T20:42:19.118Z,22.90
2018-07-07T20:44:47.527Z,22.90
2018-07-07T20:47:15.986Z,22.90
2018-07-07T20:49:44.386Z,22.80
2018-07-07T20:52:12.802Z,22.80
2018-07-07T20:54:41.238Z,22.80
2018-07-07T20:57:09.666Z,22.70
2018-07-07T20:59:38.081Z,22.70
2018-07-07T21:02:06.784Z,22.70
2018-07-07T21:04:35.144Z,22.80
2018-07-07T21:07:03.595Z,22.70
2018-07-07T21:12:00.166Z,22.60
2018-07-07T21:14:28.628Z,22.70
2018-07-07T21:19:25.223Z,22.60
2018-07-07T21:21:53.665Z,22.60
2018-07-07T21:26:50.214Z,22.50
2018-07-07T21:29:18.689Z,22.50
2018-07-07T21:31:47.051Z,22.40
2018-07-07T21:34:15.499Z,22.30
2018-07-07T21:36:44.001Z,22.40
2018-07-07T21:39:12.465Z,22.30
2018-07-07T21:41:40.915Z,22.20
2018-07-07T21:44:09.347Z,22.10
2018-07-07T21:46:37.812Z,22.00
2018-07-07T21:49:06.280Z,22.00
2018-07-07T21:51:34.687Z,22.00
2018-07-07T21:54:03.323Z,21.90
2018-07-07T21:56:31.718Z,21.70
2018-07-07T21:59:05.619Z,21.60
2018-07-07T22:01:59.793Z,21.70
2018-07-07T22:04:35.461Z,21.60
2018-07-07T22:07:12.137Z,21.60
2018-07-07T22:09:41.133Z,21.50
2018-07-07T22:14:38.490Z,21.60
2018-07-07T22:17:07.432Z,21.50
2018-07-07T22:19:36.222Z,21.40
2018-07-07T22:22:06.863Z,21.40
2018-07-07T22:24:35.814Z,21.30
2018-07-07T22:27:05.732Z,21.20
2018-07-07T22:29:34.666Z,21.20
2018-07-07T22:32:05.008Z,21.30
2018-07-07T22:34:35.869Z,21.30
2018-07-07T22:37:05.357Z,21.20
2018-07-07T22:39:35.532Z,21.20
2018-07-07T22:42:05.314Z,21.10
2018-07-07T22:44:34.927Z,21.10
2018-07-07T22:47:03.666Z,21.00
2018-07-07T22:52:01.045Z,20.90
2018-07-07T22:56:57.726Z,20.90
2018-07-07T22:59:26.204Z,20.90
2018-07-07T23:01:54.634Z,20.80
2018-07-07T23:04:23.086Z,20.80
2018-07-07T23:06:51.527Z,20.70
2018-07-07T23:11:48.223Z,20.60
2018-07-07T23:14:16.726Z,20.60
2018-07-07T23:16:45.156Z,20.60
2018-07-07T23:21:41.797Z,20.50
2018-07-07T23:26:38.386Z,20.30
2018-07-07T23:29:06.806Z,20.30
2018-07-07T23:31:35.244Z,20.30
2018-07-07T23:34:04.202Z,20.30
2018-07-07T23:36:32.689Z,20.20
2018-07-07T23:41:29.259Z,20.10
2018-07-07T23:43:57.707Z,20.10
2018-07-07T23:46:26.190Z,20.10
2018-07-07T23:48:54.633Z,20.10
2018-07-07T23:51:23.131Z,20.10
2018-07-07T23:53:51.586Z,20.10
2018-07-07T23:56:20.067Z,20.00
2018-07-07T23:58:48.467Z,20.00
